Details From KSAN - San Diego Intl
To KNZY - San Diego North Island NAS
Flight Number -
Tags generated
Created
Modified
Stats Distance 9 nm / 16 km
Max Altitude 1,000 ft / 305 m
Waypoints 3
Social Downloads 1
Likes 0
Share VATSIM

Download

Looking for another format? Having issues loading an existing format? Contact us
Advertisement - Login to hide

Notes

Basic altitude profile: - Ascent Rate: 2500ft/min - Ascent Speed: 250kts - Cruise Altitude: 250000ft - Cruise Speed: 420kts - Descent Rate: 1500ft/min - Descent Speed: 250kts

Route

KSAN MZB KNZY

ID Type Via Altitude Latitude Longitude Leg Dist Tot Dist Heading (true) Name
O KSAN APT - 0 ft / 0 m 32.73356˚ -117.18966˚ - 0 nm - San Diego Intl
MZB DME - 1,000 ft / 305 m 32.78220˚ -117.22541˚ 3 nm 3 nm 328° / 328° MISSION BAY VORTAC
O KNZY APT - 0 ft / 0 m 32.69815˚ -117.21304˚ 5 nm 8 nm 173° / 173° San Diego North Island NAS

Altitude Profile

Advertisement - Login to hide

KSAN

Details ICAO KSAN (SAN)
Name San Diego Intl
Region United States
Timezone America/Los_Angeles (UTC-8.0)
Stats Elevation 17 ft / 5 m (AMSL)
Location 32.733556° -117.189658°
Runways 1
Magnetic Variation 11.525° E

METAR

KSAN 151551Z 00000KT 9SM FEW020 FEW250 13/01 A3014 RMK AO2 SLP205 FU FEW020 T01330011

Decode

TAF

TAF AMD KSAN 151506Z 1515/1618 VRB05KT P6SM SKC FM152000 30007KT P6SM SKC FM160100 VRB05KT P6SM FEW015 SCT250 FM161500 VRB05KT P6SM BKN015

Decode

Departure Runways

ID Width Length Bearing (true) Bearing (mag) Surface Threshold Offset Overrun Length
09 200 ft / 61 m 9,387 ft / 2,861 m 106.07° 94.55° Asphalt 699 ft / 213 m 269 ft / 82 m
27 200 ft / 61 m 9,387 ft / 2,861 m 286.08° 274.56° Asphalt 1,811 ft / 552 m 0 ft / 0 m

KNZY

Details ICAO KNZY (NZY)
Name San Diego North Island NAS
Region United States
Timezone America/Los_Angeles (UTC-8.0)
Stats Elevation 26 ft / 8 m (AMSL)
Location 32.698154° -117.213036°
Runways 2
Magnetic Variation 11.523° E

METAR

KNZY 151452Z VRB04KT 7SM CLR 12/06 A3011 RMK AO2 SLP195 T01170056 53010 $

Decode

TAF

TAF KNZY 1515/1615 VRB06KT 9999 SKC 520109 QNH3005INS FM151700 30005KT 9999 FEW250 500000 QNH3000INS FM160300 VRB06KT 9999 SCT250 QNH2995INS FM161400 19010KT 9999 BKN220 QNH2985INS T25/1522Z T11/1613Z FS30022

Decode

Destination Runways

ID Width Length Bearing (true) Bearing (mag) Surface Threshold Offset Overrun Length
11 300 ft / 91 m 7,497 ft / 2,285 m 122.10° 110.58° Asphalt 0 ft / 0 m 200 ft / 61 m
18 200 ft / 61 m 8,021 ft / 2,445 m 195.39° 183.87° Asphalt 0 ft / 0 m 600 ft / 183 m
29 300 ft / 91 m 7,497 ft / 2,285 m 302.12° 290.60° Asphalt 0 ft / 0 m 0 ft / 0 m
36 200 ft / 61 m 8,021 ft / 2,445 m 15.39° 3.87° Asphalt 0 ft / 0 m 600 ft / 183 m

Popular Alternatives